Grafton, WI (53024)

10:08 AM CDT on August 28, 2016 (GMT -0500)
Lions Den Gorge | | Change Station
Active Advisory: Special Statement

Elev 709 ft 43.34 °N, 87.90 °W | Updated 10 seconds ago

Overcast
Overcast
67.5 °F
Feels Like 67.5 °F
N
0.0
Wind Variable Wind from North
Gusts 2.0 mph

Today
High -- | Low -- °F
--% Chance of Precip.
Yesterday
High -- | Low -- °F
Precip. -- in
Pressure 30.24 in
Visibility 10.0 miles
Clouds Overcast 500 ft
Dew Point 68 °F
Humidity 100%
Rainfall 0.00 in
Snow Depth Not available.
6:11 AM 7:32 PM
Waning Crescent, 15% visible
METAR KETB 281450Z AUTO 00000KT 10SM OVC005 18/18 A3024 RMK AO2
Pressure 30.24 in
Visibility 10.0 miles
Clouds Overcast 500 ft
Dew Point 68 °F
Humidity 100%
Rainfall 0.00 in
Snow Depth Not available.
6:11 AM 7:32 PM
Waning Crescent, 15% visible
METAR KETB 281450Z AUTO 00000KT 10SM OVC005 18/18 A3024 RMK AO2

10-Day Weather Forecast

Almanac

Astronomy

Aug. 28, 2016 Rise Set
Actual Time
Civil Twilight
Nautical Twilight
Astronomical Twilight
Moon
Length of Visible Light
Length of Day
Tomorrow will be .
, % of the Moon is Illuminated

Today's Extremes

State Highs State Lows

Community

WunderPhotos

Upload Photos

1,935,572 photos uploaded!

WunderBlog® & News

Nearby

Air Quality

  Air Quality AQ Index Pollutant
Not available.

Snow Depth

Station Depth Elevation

Earthquake Activity

City Distance Mag. Time & Date
Minimum magnitude displayed is 2.5.

Coastal Water Temperatures

Place Temperature

Stations

Nearby Weather Stations

Station Location Temp. Windchill Dew Point Humidity Wind Precip. Elev Updated Type
                   

Watches & Warnings

Special Statement
Issued: 9:57 AM CDT Aug. 28, 2016 – National Weather Service

... Patchy dense fog will slowly thin...

Lingering patchy dense fog over parts of south central and
southeast Wisconsin will continue to slowly thin and dissipate
through the late morning.

Visibilities of one quarter mile or less in the dense fog are
expected to gradually improve to one more or better by the noon
hour.

Until then... slow down and drive with extra caution should you
encounter one of these dense fog patches.

Kavinsky

957 am CDT sun Aug 28 2016

... Patchy dense fog will slowly thin...

Lingering patchy dense fog over parts of south central and
southeast Wisconsin will continue to slowly thin and dissipate
through the late morning.

Visibilities of one quarter mile or less in the dense fog are
expected to gradually improve to one more or better by the noon
hour.

Until then... slow down and drive with extra caution should you
encounter one of these dense fog patches.

Kavinsky